sensor_id;sensor_type;location;lat;lon;timestamp;temperature;humidity
15359;DHT22;7779;49.596;11.070;2023-04-15T00:01:26;6.80;65.80
15359;DHT22;7779;49.596;11.070;2023-04-15T00:03:53;6.70;65.80
15359;DHT22;7779;49.596;11.070;2023-04-15T00:06:22;6.70;65.90
15359;DHT22;7779;49.596;11.070;2023-04-15T00:08:48;6.70;66.10
15359;DHT22;7779;49.596;11.070;2023-04-15T00:11:15;6.60;66.00
15359;DHT22;7779;49.596;11.070;2023-04-15T00:13:42;6.70;66.20
15359;DHT22;7779;49.596;11.070;2023-04-15T00:16:09;6.60;66.20
15359;DHT22;7779;49.596;11.070;2023-04-15T00:18:35;6.60;66.30
15359;DHT22;7779;49.596;11.070;2023-04-15T00:21:02;6.60;66.20
15359;DHT22;7779;49.596;11.070;2023-04-15T00:23:28;6.60;66.40
15359;DHT22;7779;49.596;11.070;2023-04-15T00:25:55;6.60;66.40
15359;DHT22;7779;49.596;11.070;2023-04-15T00:28:21;6.60;67.90
15359;DHT22;7779;49.596;11.070;2023-04-15T00:30:47;6.60;66.70
15359;DHT22;7779;49.596;11.070;2023-04-15T00:33:13;6.70;66.80
15359;DHT22;7779;49.596;11.070;2023-04-15T00:35:40;6.60;66.70
15359;DHT22;7779;49.596;11.070;2023-04-15T00:38:07;6.70;66.80
15359;DHT22;7779;49.596;11.070;2023-04-15T00:40:33;6.70;66.80
15359;DHT22;7779;49.596;11.070;2023-04-15T00:43:00;6.70;66.80
15359;DHT22;7779;49.596;11.070;2023-04-15T00:45:25;6.70;66.80
15359;DHT22;7779;49.596;11.070;2023-04-15T00:47:54;6.70;66.70
15359;DHT22;7779;49.596;11.070;2023-04-15T00:50:20;6.70;66.70
15359;DHT22;7779;49.596;11.070;2023-04-15T00:52:47;6.70;66.70
15359;DHT22;7779;49.596;11.070;2023-04-15T00:55:15;6.70;66.70
15359;DHT22;7779;49.596;11.070;2023-04-15T00:57:41;6.70;66.70
15359;DHT22;7779;49.596;11.070;2023-04-15T01:00:07;6.70;66.70
15359;DHT22;7779;49.596;11.070;2023-04-15T01:02:34;6.70;66.70
15359;DHT22;7779;49.596;11.070;2023-04-15T01:05:01;6.70;66.70
15359;DHT22;7779;49.596;11.070;2023-04-15T01:07:28;6.70;66.80
15359;DHT22;7779;49.596;11.070;2023-04-15T01:09:55;6.70;66.80
15359;DHT22;7779;49.596;11.070;2023-04-15T01:12:22;6.70;66.90
15359;DHT22;7779;49.596;11.070;2023-04-15T01:14:50;6.70;66.80
15359;DHT22;7779;49.596;11.070;2023-04-15T01:17:17;6.70;66.90
15359;DHT22;7779;49.596;11.070;2023-04-15T01:19:43;6.70;66.90
15359;DHT22;7779;49.596;11.070;2023-04-15T01:22:09;6.70;66.90
15359;DHT22;7779;49.596;11.070;2023-04-15T01:24:37;6.70;67.00
15359;DHT22;7779;49.596;11.070;2023-04-15T01:27:03;6.70;67.00
15359;DHT22;7779;49.596;11.070;2023-04-15T01:29:31;6.70;67.00
15359;DHT22;7779;49.596;11.070;2023-04-15T01:31:59;6.70;67.00
15359;DHT22;7779;49.596;11.070;2023-04-15T01:34:26;6.70;67.00
15359;DHT22;7779;49.596;11.070;2023-04-15T01:36:53;6.70;67.10
15359;DHT22;7779;49.596;11.070;2023-04-15T01:39:20;6.80;67.20
15359;DHT22;7779;49.596;11.070;2023-04-15T01:41:46;6.80;67.30
15359;DHT22;7779;49.596;11.070;2023-04-15T01:44:12;6.80;67.30
15359;DHT22;7779;49.596;11.070;2023-04-15T01:46:38;6.80;67.30
15359;DHT22;7779;49.596;11.070;2023-04-15T01:49:04;6.80;67.30
15359;DHT22;7779;49.596;11.070;2023-04-15T01:51:31;6.80;67.40
15359;DHT22;7779;49.596;11.070;2023-04-15T01:53:57;6.90;67.40
15359;DHT22;7779;49.596;11.070;2023-04-15T01:56:23;6.90;67.50
15359;DHT22;7779;49.596;11.070;2023-04-15T01:58:49;6.90;67.40
15359;DHT22;7779;49.596;11.070;2023-04-15T02:01:15;6.90;67.40
15359;DHT22;7779;49.596;11.070;2023-04-15T02:03:44;6.90;67.50
15359;DHT22;7779;49.596;11.070;2023-04-15T02:06:10;6.90;67.40
15359;DHT22;7779;49.596;11.070;2023-04-15T02:08:36;6.90;67.50
15359;DHT22;7779;49.596;11.070;2023-04-15T02:11:05;6.90;67.50
15359;DHT22;7779;49.596;11.070;2023-04-15T02:13:31;6.90;67.50
15359;DHT22;7779;49.596;11.070;2023-04-15T02:15:56;6.90;67.60
15359;DHT22;7779;49.596;11.070;2023-04-15T02:18:22;6.90;67.60
15359;DHT22;7779;49.596;11.070;2023-04-15T02:20:49;6.90;67.70
15359;DHT22;7779;49.596;11.070;2023-04-15T02:23:16;6.90;67.60
15359;DHT22;7779;49.596;11.070;2023-04-15T02:25:42;6.90;67.60
15359;DHT22;7779;49.596;11.070;2023-04-15T02:28:08;6.90;67.70
15359;DHT22;7779;49.596;11.070;2023-04-15T02:30:34;6.90;67.70
15359;DHT22;7779;49.596;11.070;2023-04-15T02:33:01;7.00;67.80
15359;DHT22;7779;49.596;11.070;2023-04-15T02:35:27;6.90;67.60
15359;DHT22;7779;49.596;11.070;2023-04-15T02:37:53;6.90;67.60
15359;DHT22;7779;49.596;11.070;2023-04-15T02:40:19;6.90;67.60
15359;DHT22;7779;49.596;11.070;2023-04-15T02:42:45;6.90;67.60
15359;DHT22;7779;49.596;11.070;2023-04-15T02:45:14;6.90;67.60
15359;DHT22;7779;49.596;11.070;2023-04-15T02:47:41;6.90;67.60
15359;DHT22;7779;49.596;11.070;2023-04-15T02:50:10;6.90;67.60
15359;DHT22;7779;49.596;11.070;2023-04-15T02:52:41;6.90;67.70
15359;DHT22;7779;49.596;11.070;2023-04-15T02:55:08;6.90;67.80
15359;DHT22;7779;49.596;11.070;2023-04-15T02:57:35;6.90;67.70
15359;DHT22;7779;49.596;11.070;2023-04-15T03:00:08;6.90;67.70
15359;DHT22;7779;49.596;11.070;2023-04-15T03:02:39;6.90;67.70
15359;DHT22;7779;49.596;11.070;2023-04-15T03:05:10;7.00;67.80
15359;DHT22;7779;49.596;11.070;2023-04-15T03:07:37;6.90;67.70
15359;DHT22;7779;49.596;11.070;2023-04-15T03:10:03;6.90;67.70
15359;DHT22;7779;49.596;11.070;2023-04-15T03:12:29;6.90;67.80
15359;DHT22;7779;49.596;11.070;2023-04-15T03:14:56;6.90;67.80
15359;DHT22;7779;49.596;11.070;2023-04-15T03:17:29;6.90;67.90
15359;DHT22;7779;49.596;11.070;2023-04-15T03:19:55;6.90;67.90
15359;DHT22;7779;49.596;11.070;2023-04-15T03:22:22;6.90;67.90
15359;DHT22;7779;49.596;11.070;2023-04-15T03:24:48;6.90;68.00
15359;DHT22;7779;49.596;11.070;2023-04-15T03:27:13;7.00;68.20
15359;DHT22;7779;49.596;11.070;2023-04-15T03:29:41;7.00;68.20
15359;DHT22;7779;49.596;11.070;2023-04-15T03:32:07;7.00;68.20
15359;DHT22;7779;49.596;11.070;2023-04-15T03:34:33;7.00;68.20
15359;DHT22;7779;49.596;11.070;2023-04-15T03:36:59;7.00;68.20
15359;DHT22;7779;49.596;11.070;2023-04-15T03:39:25;7.00;68.30
15359;DHT22;7779;49.596;11.070;2023-04-15T03:41:51;7.00;68.30
15359;DHT22;7779;49.596;11.070;2023-04-15T03:44:17;7.00;69.00
15359;DHT22;7779;49.596;11.070;2023-04-15T03:46:42;7.00;68.40
15359;DHT22;7779;49.596;11.070;2023-04-15T03:49:08;7.00;68.40
15359;DHT22;7779;49.596;11.070;2023-04-15T03:51:34;7.00;68.40
15359;DHT22;7779;49.596;11.070;2023-04-15T03:54:00;7.10;68.50
15359;DHT22;7779;49.596;11.070;2023-04-15T03:56:26;7.10;68.70
15359;DHT22;7779;49.596;11.070;2023-04-15T03:58:52;7.10;68.60
15359;DHT22;7779;49.596;11.070;2023-04-15T04:01:18;7.10;68.70
15359;DHT22;7779;49.596;11.070;2023-04-15T04:03:43;7.10;68.60
15359;DHT22;7779;49.596;11.070;2023-04-15T04:06:09;7.10;68.60
15359;DHT22;7779;49.596;11.070;2023-04-15T04:08:36;7.10;68.50
15359;DHT22;7779;49.596;11.070;2023-04-15T04:11:02;7.10;68.40
15359;DHT22;7779;49.596;11.070;2023-04-15T04:13:28;7.10;68.40
15359;DHT22;7779;49.596;11.070;2023-04-15T04:15:54;7.10;68.40
15359;DHT22;7779;49.596;11.070;2023-04-15T04:18:20;7.10;68.40
15359;DHT22;7779;49.596;11.070;2023-04-15T04:20:46;7.10;68.40
15359;DHT22;7779;49.596;11.070;2023-04-15T04:23:13;7.10;68.50
15359;DHT22;7779;49.596;11.070;2023-04-15T04:25:39;7.10;68.60
15359;DHT22;7779;49.596;11.070;2023-04-15T04:28:04;7.10;68.60
15359;DHT22;7779;49.596;11.070;2023-04-15T04:30:30;7.10;68.70
15359;DHT22;7779;49.596;11.070;2023-04-15T04:32:56;7.10;68.70
15359;DHT22;7779;49.596;11.070;2023-04-15T04:35:22;7.10;68.70
15359;DHT22;7779;49.596;11.070;2023-04-15T04:37:48;7.10;68.70
15359;DHT22;7779;49.596;11.070;2023-04-15T04:40:15;7.10;68.80
15359;DHT22;7779;49.596;11.070;2023-04-15T04:42:41;7.20;68.90
15359;DHT22;7779;49.596;11.070;2023-04-15T04:45:07;7.20;68.90
15359;DHT22;7779;49.596;11.070;2023-04-15T04:47:33;7.20;69.00
15359;DHT22;7779;49.596;11.070;2023-04-15T04:49:58;7.20;69.00
15359;DHT22;7779;49.596;11.070;2023-04-15T04:52:24;7.20;69.10
15359;DHT22;7779;49.596;11.070;2023-04-15T04:54:50;7.20;69.00
15359;DHT22;7779;49.596;11.070;2023-04-15T04:57:16;7.30;69.20
15359;DHT22;7779;49.596;11.070;2023-04-15T04:59:41;7.30;69.30
15359;DHT22;7779;49.596;11.070;2023-04-15T05:02:07;7.30;69.90
15359;DHT22;7779;49.596;11.070;2023-04-15T05:04:33;7.30;69.30
15359;DHT22;7779;49.596;11.070;2023-04-15T05:06:59;7.30;69.30
15359;DHT22;7779;49.596;11.070;2023-04-15T05:09:25;7.40;69.40
15359;DHT22;7779;49.596;11.070;2023-04-15T05:11:50;7.40;69.40
15359;DHT22;7779;49.596;11.070;2023-04-15T05:14:16;7.40;69.50
15359;DHT22;7779;49.596;11.070;2023-04-15T05:16:42;7.40;69.60
15359;DHT22;7779;49.596;11.070;2023-04-15T05:19:07;7.50;69.80
15359;DHT22;7779;49.596;11.070;2023-04-15T05:21:33;7.50;69.80
15359;DHT22;7779;49.596;11.070;2023-04-15T05:23:59;7.60;69.90
15359;DHT22;7779;49.596;11.070;2023-04-15T05:26:24;7.60;70.00
15359;DHT22;7779;49.596;11.070;2023-04-15T05:28:51;7.60;70.00
15359;DHT22;7779;49.596;11.070;2023-04-15T05:31:18;7.70;70.10
15359;DHT22;7779;49.596;11.070;2023-04-15T05:33:44;7.70;70.10
15359;DHT22;7779;49.596;11.070;2023-04-15T05:36:09;7.80;70.20
15359;DHT22;7779;49.596;11.070;2023-04-15T05:38:35;7.80;70.20
15359;DHT22;7779;49.596;11.070;2023-04-15T05:41:01;7.90;70.30
15359;DHT22;7779;49.596;11.070;2023-04-15T05:43:27;7.90;70.30
15359;DHT22;7779;49.596;11.070;2023-04-15T05:45:53;8.00;70.30
15359;DHT22;7779;49.596;11.070;2023-04-15T05:48:19;8.00;70.30
15359;DHT22;7779;49.596;11.070;2023-04-15T05:50:44;8.10;70.40
15359;DHT22;7779;49.596;11.070;2023-04-15T05:53:10;8.10;70.40
15359;DHT22;7779;49.596;11.070;2023-04-15T05:55:36;8.10;70.30
15359;DHT22;7779;49.596;11.070;2023-04-15T05:58:01;8.20;70.40
15359;DHT22;7779;49.596;11.070;2023-04-15T06:00:28;8.20;70.40
15359;DHT22;7779;49.596;11.070;2023-04-15T06:02:55;8.20;70.40
15359;DHT22;7779;49.596;11.070;2023-04-15T06:05:22;8.30;70.50
15359;DHT22;7779;49.596;11.070;2023-04-15T06:07:48;8.30;70.50
15359;DHT22;7779;49.596;11.070;2023-04-15T06:10:14;8.40;70.70
15359;DHT22;7779;49.596;11.070;2023-04-15T06:12:40;8.40;70.70
15359;DHT22;7779;49.596;11.070;2023-04-15T06:15:06;8.50;70.70
15359;DHT22;7779;49.596;11.070;2023-04-15T06:17:35;8.50;70.70
15359;DHT22;7779;49.596;11.070;2023-04-15T06:20:01;8.60;70.80
15359;DHT22;7779;49.596;11.070;2023-04-15T06:22:27;8.60;70.70
15359;DHT22;7779;49.596;11.070;2023-04-15T06:24:53;8.70;70.70
15359;DHT22;7779;49.596;11.070;2023-04-15T06:27:19;8.70;70.80
15359;DHT22;7779;49.596;11.070;2023-04-15T06:29:45;8.70;70.70
15359;DHT22;7779;49.596;11.070;2023-04-15T06:32:11;8.80;70.70
15359;DHT22;7779;49.596;11.070;2023-04-15T06:34:37;8.80;70.70
15359;DHT22;7779;49.596;11.070;2023-04-15T06:37:03;8.90;70.80
15359;DHT22;7779;49.596;11.070;2023-04-15T06:39:28;8.90;70.80
15359;DHT22;7779;49.596;11.070;2023-04-15T06:41:54;8.90;70.80
15359;DHT22;7779;49.596;11.070;2023-04-15T06:44:20;9.00;70.90
15359;DHT22;7779;49.596;11.070;2023-04-15T06:46:46;9.00;70.90
15359;DHT22;7779;49.596;11.070;2023-04-15T06:49:12;9.10;71.00
15359;DHT22;7779;49.596;11.070;2023-04-15T06:51:38;9.10;70.90
15359;DHT22;7779;49.596;11.070;2023-04-15T06:54:04;9.10;70.90
15359;DHT22;7779;49.596;11.070;2023-04-15T06:58:58;9.20;70.80
15359;DHT22;7779;49.596;11.070;2023-04-15T07:01:23;9.30;70.80
15359;DHT22;7779;49.596;11.070;2023-04-15T07:03:49;9.30;70.90
15359;DHT22;7779;49.596;11.070;2023-04-15T07:06:15;9.30;70.90
15359;DHT22;7779;49.596;11.070;2023-04-15T07:08:41;9.40;71.00
15359;DHT22;7779;49.596;11.070;2023-04-15T07:11:07;9.40;70.90
15359;DHT22;7779;49.596;11.070;2023-04-15T07:13:33;9.50;70.90
15359;DHT22;7779;49.596;11.070;2023-04-15T07:15:59;9.50;70.90
15359;DHT22;7779;49.596;11.070;2023-04-15T07:18:25;9.50;71.40
15359;DHT22;7779;49.596;11.070;2023-04-15T07:20:50;9.60;70.90
15359;DHT22;7779;49.596;11.070;2023-04-15T07:23:17;9.60;70.90
15359;DHT22;7779;49.596;11.070;2023-04-15T07:25:42;9.60;70.90
15359;DHT22;7779;49.596;11.070;2023-04-15T07:28:08;9.70;71.00
15359;DHT22;7779;49.596;11.070;2023-04-15T07:30:34;9.70;71.00
15359;DHT22;7779;49.596;11.070;2023-04-15T07:33:00;9.70;70.80
15359;DHT22;7779;49.596;11.070;2023-04-15T07:35:27;9.80;70.80
15359;DHT22;7779;49.596;11.070;2023-04-15T07:37:53;9.80;70.80
15359;DHT22;7779;49.596;11.070;2023-04-15T07:40:20;9.80;70.80
15359;DHT22;7779;49.596;11.070;2023-04-15T07:42:46;9.90;71.00
15359;DHT22;7779;49.596;11.070;2023-04-15T07:45:13;9.90;70.90
15359;DHT22;7779;49.596;11.070;2023-04-15T07:47:40;9.90;70.80
15359;DHT22;7779;49.596;11.070;2023-04-15T07:50:07;10.00;69.90
15359;DHT22;7779;49.596;11.070;2023-04-15T07:52:35;10.00;69.70
15359;DHT22;7779;49.596;11.070;2023-04-15T07:55:05;10.10;69.70
15359;DHT22;7779;49.596;11.070;2023-04-15T07:57:33;10.10;69.70
15359;DHT22;7779;49.596;11.070;2023-04-15T07:59:59;10.10;69.60
15359;DHT22;7779;49.596;11.070;2023-04-15T08:02:25;10.20;69.60
15359;DHT22;7779;49.596;11.070;2023-04-15T08:04:51;10.20;69.70
15359;DHT22;7779;49.596;11.070;2023-04-15T08:07:18;10.20;69.40
15359;DHT22;7779;49.596;11.070;2023-04-15T08:09:44;10.20;69.20
15359;DHT22;7779;49.596;11.070;2023-04-15T08:12:10;10.30;69.10
15359;DHT22;7779;49.596;11.070;2023-04-15T08:14:38;10.30;68.90
15359;DHT22;7779;49.596;11.070;2023-04-15T08:17:04;10.30;69.00
15359;DHT22;7779;49.596;11.070;2023-04-15T08:19:30;10.30;68.90
15359;DHT22;7779;49.596;11.070;2023-04-15T08:21:56;10.20;68.70
15359;DHT22;7779;49.596;11.070;2023-04-15T08:24:23;10.20;68.40
15359;DHT22;7779;49.596;11.070;2023-04-15T08:26:51;10.20;68.30
15359;DHT22;7779;49.596;11.070;2023-04-15T08:29:17;10.20;68.30
15359;DHT22;7779;49.596;11.070;2023-04-15T08:31:43;10.10;68.30
15359;DHT22;7779;49.596;11.070;2023-04-15T08:34:12;10.10;68.40
15359;DHT22;7779;49.596;11.070;2023-04-15T08:36:39;10.10;68.70
15359;DHT22;7779;49.596;11.070;2023-04-15T08:39:06;10.10;68.80
15359;DHT22;7779;49.596;11.070;2023-04-15T08:41:58;10.00;68.80
15359;DHT22;7779;49.596;11.070;2023-04-15T08:44:28;10.00;69.50
15359;DHT22;7779;49.596;11.070;2023-04-15T08:47:02;10.00;69.00
15359;DHT22;7779;49.596;11.070;2023-04-15T08:49:31;10.00;69.10
15359;DHT22;7779;49.596;11.070;2023-04-15T08:52:06;10.00;68.80
15359;DHT22;7779;49.596;11.070;2023-04-15T08:54:33;10.00;68.80
15359;DHT22;7779;49.596;11.070;2023-04-15T08:56:59;10.00;68.70
15359;DHT22;7779;49.596;11.070;2023-04-15T08:59:27;9.90;69.60
15359;DHT22;7779;49.596;11.070;2023-04-15T09:01:56;9.90;69.60
15359;DHT22;7779;49.596;11.070;2023-04-15T09:04:23;9.90;69.60
15359;DHT22;7779;49.596;11.070;2023-04-15T09:06:48;9.90;69.60
15359;DHT22;7779;49.596;11.070;2023-04-15T09:09:14;9.90;69.50
15359;DHT22;7779;49.596;11.070;2023-04-15T09:11:41;9.90;69.60
15359;DHT22;7779;49.596;11.070;2023-04-15T09:14:07;9.90;69.80
15359;DHT22;7779;49.596;11.070;2023-04-15T09:16:55;9.90;69.80
15359;DHT22;7779;49.596;11.070;2023-04-15T09:19:25;9.90;70.70
15359;DHT22;7779;49.596;11.070;2023-04-15T09:21:55;9.80;69.90
15359;DHT22;7779;49.596;11.070;2023-04-15T09:24:23;9.80;70.10
15359;DHT22;7779;49.596;11.070;2023-04-15T09:26:53;9.90;70.00
15359;DHT22;7779;49.596;11.070;2023-04-15T09:29:24;9.90;70.00
15359;DHT22;7779;49.596;11.070;2023-04-15T09:31:51;9.90;70.30
15359;DHT22;7779;49.596;11.070;2023-04-15T09:34:17;9.90;70.30
15359;DHT22;7779;49.596;11.070;2023-04-15T09:39:13;9.90;70.70
15359;DHT22;7779;49.596;11.070;2023-04-15T09:41:39;10.00;69.60
15359;DHT22;7779;49.596;11.070;2023-04-15T09:44:05;10.00;69.50
15359;DHT22;7779;49.596;11.070;2023-04-15T09:46:44;10.00;69.20
15359;DHT22;7779;49.596;11.070;2023-04-15T09:49:11;10.00;69.50
15359;DHT22;7779;49.596;11.070;2023-04-15T09:51:37;10.00;68.90
15359;DHT22;7779;49.596;11.070;2023-04-15T09:54:04;10.00;68.90
15359;DHT22;7779;49.596;11.070;2023-04-15T09:56:37;10.00;68.90
15359;DHT22;7779;49.596;11.070;2023-04-15T09:59:09;10.00;69.30
15359;DHT22;7779;49.596;11.070;2023-04-15T10:01:35;10.00;69.40
15359;DHT22;7779;49.596;11.070;2023-04-15T10:04:03;10.10;69.40
15359;DHT22;7779;49.596;11.070;2023-04-15T10:06:29;10.10;69.30
15359;DHT22;7779;49.596;11.070;2023-04-15T10:08:57;10.10;69.60
15359;DHT22;7779;49.596;11.070;2023-04-15T10:11:25;10.10;69.50
15359;DHT22;7779;49.596;11.070;2023-04-15T10:13:53;10.20;69.80
15359;DHT22;7779;49.596;11.070;2023-04-15T10:16:20;10.20;69.90
15359;DHT22;7779;49.596;11.070;2023-04-15T10:18:54;10.30;70.20
15359;DHT22;7779;49.596;11.070;2023-04-15T10:21:21;10.30;70.10
15359;DHT22;7779;49.596;11.070;2023-04-15T10:23:48;10.40;70.10
15359;DHT22;7779;49.596;11.070;2023-04-15T10:26:15;10.40;70.00
15359;DHT22;7779;49.596;11.070;2023-04-15T10:28:45;10.50;70.00
15359;DHT22;7779;49.596;11.070;2023-04-15T10:31:14;10.50;70.10
15359;DHT22;7779;49.596;11.070;2023-04-15T10:33:42;10.60;70.50
15359;DHT22;7779;49.596;11.070;2023-04-15T10:36:09;10.70;70.90
15359;DHT22;7779;49.596;11.070;2023-04-15T10:38:41;10.80;71.80
15359;DHT22;7779;49.596;11.070;2023-04-15T10:41:16;10.60;71.50
15359;DHT22;7779;49.596;11.070;2023-04-15T10:43:55;11.00;71.40
15359;DHT22;7779;49.596;11.070;2023-04-15T10:46:42;11.10;71.30
15359;DHT22;7779;49.596;11.070;2023-04-15T10:49:14;11.20;71.50
15359;DHT22;7779;49.596;11.070;2023-04-15T10:51:56;11.30;71.20
15359;DHT22;7779;49.596;11.070;2023-04-15T10:59:29;11.60;70.70
15359;DHT22;7779;49.596;11.070;2023-04-15T11:02:03;11.60;70.20
15359;DHT22;7779;49.596;11.070;2023-04-15T11:04:52;11.60;69.60
15359;DHT22;7779;49.596;11.070;2023-04-15T11:07:38;11.60;69.20
15359;DHT22;7779;49.596;11.070;2023-04-15T11:12:48;11.50;68.00
15359;DHT22;7779;49.596;11.070;2023-04-15T11:15:31;11.50;68.80
15359;DHT22;7779;49.596;11.070;2023-04-15T11:20:52;11.40;68.30
15359;DHT22;7779;49.596;11.070;2023-04-15T11:23:35;11.40;68.90
15359;DHT22;7779;49.596;11.070;2023-04-15T11:26:04;11.40;69.80
15359;DHT22;7779;49.596;11.070;2023-04-15T11:28:34;11.50;70.50
15359;DHT22;7779;49.596;11.070;2023-04-15T11:31:17;11.60;70.70
15359;DHT22;7779;49.596;11.070;2023-04-15T11:33:54;11.70;70.40
15359;DHT22;7779;49.596;11.070;2023-04-15T11:36:24;11.80;70.80
15359;DHT22;7779;49.596;11.070;2023-04-15T11:38:52;11.90;70.60
15359;DHT22;7779;49.596;11.070;2023-04-15T11:41:24;12.10;70.40
15359;DHT22;7779;49.596;11.070;2023-04-15T11:43:51;12.10;69.80
15359;DHT22;7779;49.596;11.070;2023-04-15T11:46:17;12.20;69.30
15359;DHT22;7779;49.596;11.070;2023-04-15T11:48:45;12.20;68.80
15359;DHT22;7779;49.596;11.070;2023-04-15T11:51:12;12.20;68.50
15359;DHT22;7779;49.596;11.070;2023-04-15T11:53:46;12.30;68.30
15359;DHT22;7779;49.596;11.070;2023-04-15T11:56:23;12.30;68.20
15359;DHT22;7779;49.596;11.070;2023-04-15T11:58:55;12.30;67.90
15359;DHT22;7779;49.596;11.070;2023-04-15T12:01:33;12.30;68.50
15359;DHT22;7779;49.596;11.070;2023-04-15T12:04:14;12.30;67.60
15359;DHT22;7779;49.596;11.070;2023-04-15T12:06:46;12.30;67.10
15359;DHT22;7779;49.596;11.070;2023-04-15T12:09:13;12.20;67.20
15359;DHT22;7779;49.596;11.070;2023-04-15T12:11:49;12.20;67.20
15359;DHT22;7779;49.596;11.070;2023-04-15T12:14:20;12.20;67.00
15359;DHT22;7779;49.596;11.070;2023-04-15T12:16:56;12.10;66.80
15359;DHT22;7779;49.596;11.070;2023-04-15T12:19:35;12.10;66.80
15359;DHT22;7779;49.596;11.070;2023-04-15T12:22:08;12.10;67.00
15359;DHT22;7779;49.596;11.070;2023-04-15T12:24:36;12.10;67.40
15359;DHT22;7779;49.596;11.070;2023-04-15T12:27:08;12.10;67.70
15359;DHT22;7779;49.596;11.070;2023-04-15T12:29:37;12.20;67.60
15359;DHT22;7779;49.596;11.070;2023-04-15T12:32:07;12.20;67.80
15359;DHT22;7779;49.596;11.070;2023-04-15T12:34:43;12.30;67.80
15359;DHT22;7779;49.596;11.070;2023-04-15T12:37:13;12.30;67.80
15359;DHT22;7779;49.596;11.070;2023-04-15T12:39:46;12.40;67.60
15359;DHT22;7779;49.596;11.070;2023-04-15T12:42:16;12.40;67.10
15359;DHT22;7779;49.596;11.070;2023-04-15T12:44:43;12.40;67.00
15359;DHT22;7779;49.596;11.070;2023-04-15T12:49:36;12.40;65.70
15359;DHT22;7779;49.596;11.070;2023-04-15T12:52:02;12.40;66.10
15359;DHT22;7779;49.596;11.070;2023-04-15T12:54:29;12.30;65.70
15359;DHT22;7779;49.596;11.070;2023-04-15T12:56:56;12.30;65.70
15359;DHT22;7779;49.596;11.070;2023-04-15T12:59:23;12.20;65.70
15359;DHT22;7779;49.596;11.070;2023-04-15T13:01:49;12.20;65.90
15359;DHT22;7779;49.596;11.070;2023-04-15T13:04:18;12.10;65.90
15359;DHT22;7779;49.596;11.070;2023-04-15T13:06:45;12.10;66.10
15359;DHT22;7779;49.596;11.070;2023-04-15T13:09:10;12.10;66.50
15359;DHT22;7779;49.596;11.070;2023-04-15T13:11:36;12.10;66.80
15359;DHT22;7779;49.596;11.070;2023-04-15T13:14:06;12.10;66.80
15359;DHT22;7779;49.596;11.070;2023-04-15T13:16:34;12.20;66.80
15359;DHT22;7779;49.596;11.070;2023-04-15T13:19:01;12.20;66.80
15359;DHT22;7779;49.596;11.070;2023-04-15T13:21:28;12.20;66.90
15359;DHT22;7779;49.596;11.070;2023-04-15T13:23:55;12.20;66.60
15359;DHT22;7779;49.596;11.070;2023-04-15T13:26:21;12.20;66.40
15359;DHT22;7779;49.596;11.070;2023-04-15T13:28:46;12.20;66.30
15359;DHT22;7779;49.596;11.070;2023-04-15T13:31:12;12.20;66.10
15359;DHT22;7779;49.596;11.070;2023-04-15T13:33:38;12.10;66.00
15359;DHT22;7779;49.596;11.070;2023-04-15T13:36:04;12.10;65.80
15359;DHT22;7779;49.596;11.070;2023-04-15T13:38:29;12.00;65.50
15359;DHT22;7779;49.596;11.070;2023-04-15T13:40:55;11.90;65.40
15359;DHT22;7779;49.596;11.070;2023-04-15T13:43:21;11.90;65.40
15359;DHT22;7779;49.596;11.070;2023-04-15T13:45:47;11.80;65.40
15359;DHT22;7779;49.596;11.070;2023-04-15T13:48:13;11.80;65.30
15359;DHT22;7779;49.596;11.070;2023-04-15T13:50:38;11.70;65.20
15359;DHT22;7779;49.596;11.070;2023-04-15T13:53:10;11.60;65.40
15359;DHT22;7779;49.596;11.070;2023-04-15T13:55:36;11.50;65.40
15359;DHT22;7779;49.596;11.070;2023-04-15T13:58:06;11.50;65.70
15359;DHT22;7779;49.596;11.070;2023-04-15T14:00:35;11.40;65.80
15359;DHT22;7779;49.596;11.070;2023-04-15T14:03:01;11.40;66.10
15359;DHT22;7779;49.596;11.070;2023-04-15T14:05:27;11.40;66.50
15359;DHT22;7779;49.596;11.070;2023-04-15T14:07:53;11.40;67.10
15359;DHT22;7779;49.596;11.070;2023-04-15T14:10:18;11.40;67.10
15359;DHT22;7779;49.596;11.070;2023-04-15T14:12:44;11.40;67.10
15359;DHT22;7779;49.596;11.070;2023-04-15T14:15:10;11.40;67.00
15359;DHT22;7779;49.596;11.070;2023-04-15T14:17:36;11.30;67.00
15359;DHT22;7779;49.596;11.070;2023-04-15T14:20:01;11.40;67.10
15359;DHT22;7779;49.596;11.070;2023-04-15T14:22:27;11.30;66.80
15359;DHT22;7779;49.596;11.070;2023-04-15T14:24:53;11.30;66.80
15359;DHT22;7779;49.596;11.070;2023-04-15T14:27:20;11.30;66.80
15359;DHT22;7779;49.596;11.070;2023-04-15T14:29:46;11.20;66.70
15359;DHT22;7779;49.596;11.070;2023-04-15T14:32:11;11.20;66.80
15359;DHT22;7779;49.596;11.070;2023-04-15T14:34:37;11.20;66.90
15359;DHT22;7779;49.596;11.070;2023-04-15T14:37:03;11.20;67.00
15359;DHT22;7779;49.596;11.070;2023-04-15T14:39:29;11.20;67.20
15359;DHT22;7779;49.596;11.070;2023-04-15T14:41:55;11.10;67.20
15359;DHT22;7779;49.596;11.070;2023-04-15T14:44:21;11.10;68.00
15359;DHT22;7779;49.596;11.070;2023-04-15T14:46:47;11.10;67.50
15359;DHT22;7779;49.596;11.070;2023-04-15T14:49:13;11.10;67.50
15359;DHT22;7779;49.596;11.070;2023-04-15T14:51:39;10.50;66.90
15359;DHT22;7779;49.596;11.070;2023-04-15T14:54:05;11.10;67.50
15359;DHT22;7779;49.596;11.070;2023-04-15T14:56:31;11.00;67.60
15359;DHT22;7779;49.596;11.070;2023-04-15T14:58:56;11.00;67.60
15359;DHT22;7779;49.596;11.070;2023-04-15T15:01:22;11.00;67.60
15359;DHT22;7779;49.596;11.070;2023-04-15T15:03:48;11.00;67.70
15359;DHT22;7779;49.596;11.070;2023-04-15T15:06:14;11.00;67.90
15359;DHT22;7779;49.596;11.070;2023-04-15T15:08:40;11.00;67.90
15359;DHT22;7779;49.596;11.070;2023-04-15T15:11:06;11.00;68.00
15359;DHT22;7779;49.596;11.070;2023-04-15T15:13:31;11.00;68.10
15359;DHT22;7779;49.596;11.070;2023-04-15T15:15:57;11.00;68.10
15359;DHT22;7779;49.596;11.070;2023-04-15T15:18:23;11.00;68.10
15359;DHT22;7779;49.596;11.070;2023-04-15T15:20:50;11.00;68.90
15359;DHT22;7779;49.596;11.070;2023-04-15T15:23:16;10.90;68.10
15359;DHT22;7779;49.596;11.070;2023-04-15T15:25:43;10.90;68.30
15359;DHT22;7779;49.596;11.070;2023-04-15T15:28:10;10.90;68.50
15359;DHT22;7779;49.596;11.070;2023-04-15T15:30:36;10.90;68.50
15359;DHT22;7779;49.596;11.070;2023-04-15T15:33:02;10.90;68.70
15359;DHT22;7779;49.596;11.070;2023-04-15T15:35:27;10.90;68.90
15359;DHT22;7779;49.596;11.070;2023-04-15T15:37:53;10.90;68.90
15359;DHT22;7779;49.596;11.070;2023-04-15T15:40:19;10.90;68.90
15359;DHT22;7779;49.596;11.070;2023-04-15T15:42:45;10.90;68.90
15359;DHT22;7779;49.596;11.070;2023-04-15T15:45:14;10.90;69.00
15359;DHT22;7779;49.596;11.070;2023-04-15T15:47:40;10.90;69.10
15359;DHT22;7779;49.596;11.070;2023-04-15T15:50:06;10.80;69.00
15359;DHT22;7779;49.596;11.070;2023-04-15T15:52:32;10.80;69.00
15359;DHT22;7779;49.596;11.070;2023-04-15T15:54:57;10.80;69.00
15359;DHT22;7779;49.596;11.070;2023-04-15T15:57:23;10.80;69.00
15359;DHT22;7779;49.596;11.070;2023-04-15T15:59:49;10.80;68.90